Time;durP1;ratioP1;P1;durP2;ratioP2;P2;SDS_P1;SDS_P2;PMS_P1;PMS_P2;Temp;Humidity;BMP_temperature;BMP_pressure;BME280_temperature;BME280_humidity;BME280_pressure;Samples;Min_cycle;Max_cycle;Signal;HPM_P1;HPM_P2
2023/09/05 11:14:56;;;;;;;2.55;1.50;;;17.40;35.50;;;;;;6303484;22;20049;-77
2023/09/05 11:17:24;;;;;;;3.22;1.40;;;17.30;36.00;;;;;;6302919;22;20010;-79
2023/09/05 11:19:53;;;;;;;2.72;1.40;;;17.30;35.90;;;;;;6302785;22;20006;-78
2023/09/05 11:22:22;;;;;;;4.85;1.23;;;17.30;36.20;;;;;;6305740;22;19999;-84
2023/09/05 11:24:58;;;;;;;4.60;1.50;;;17.20;36.60;;;;;;6252015;22;20007;-83
2023/09/05 11:27:27;;;;;;;3.22;1.50;;;17.20;37.00;;;;;;6279817;22;19999;-86
2023/09/05 11:29:55;;;;;;;1.48;1.10;;;17.10;37.60;;;;;;6305526;22;20032;-77
2023/09/05 11:32:31;;;;;;;3.20;1.20;;;17.00;37.90;;;;;;6302954;22;20007;-82
2023/09/05 11:34:59;;;;;;;3.38;1.08;;;16.90;38.40;;;;;;6302526;22;20338;-80
2023/09/05 11:37:28;;;;;;;3.10;1.30;;;16.80;38.70;;;;;;6303491;22;20017;-80
2023/09/05 11:39:55;;;;;;;3.45;1.20;;;16.80;38.70;;;;;;6303384;22;20407;-79
2023/09/05 11:42:32;;;;;;;3.33;1.50;;;16.80;39.10;;;;;;6276235;22;20003;-82
2023/09/05 11:45:00;;;;;;;3.30;1.48;;;16.70;39.10;;;;;;6278920;22;20030;-82
2023/09/05 11:47:28;;;;;;;4.70;1.90;;;16.70;39.60;;;;;;6276081;22;20003;-79
2023/09/05 11:49:55;;;;;;;5.00;1.50;;;16.60;39.80;;;;;;6303440;22;20003;-80
2023/09/05 11:52:23;;;;;;;3.08;1.65;;;16.70;39.70;;;;;;6303338;22;20014;-78
2023/09/05 11:54:51;;;;;;;3.65;1.40;;;16.60;40.00;;;;;;6302360;22;20026;-82
2023/09/05 11:57:20;;;;;;;3.47;1.63;;;16.60;40.40;;;;;;6276192;22;20384;-79
2023/09/05 11:59:47;;;;;;;2.28;1.40;;;16.60;41.00;;;;;;6277356;22;20011;-83
2023/09/05 12:02:17;;;;;;;3.22;1.15;;;16.50;40.80;;;;;;6279944;22;19999;-83
2023/09/05 12:04:47;;;;;;;2.90;1.48;;;16.50;41.40;;;;;;6280858;22;20003;-83
2023/09/05 12:07:14;;;;;;;3.03;1.73;;;16.40;41.20;;;;;;6307383;22;19996;-83
2023/09/05 12:09:42;;;;;;;3.92;1.60;;;16.50;41.00;;;;;;6307199;22;20110;-83
2023/09/05 12:12:13;;;;;;;3.65;1.40;;;16.50;41.40;;;;;;6306676;22;20011;-84
2023/09/05 12:14:57;;;;;;;3.88;1.60;;;16.40;41.90;;;;;;6279810;22;20015;-84
2023/09/05 12:17:25;;;;;;;3.38;1.40;;;16.40;42.20;;;;;;6280985;22;20430;-83
2023/09/05 12:19:53;;;;;;;2.90;1.35;;;16.30;42.10;;;;;;6307464;22;20003;-83
2023/09/05 12:22:28;;;;;;;3.00;1.40;;;16.20;42.40;;;;;;6279997;22;20004;-83
2023/09/05 12:25:17;;;;;;;3.05;1.40;;;16.20;43.20;;;;;;6280452;22;20011;-84
2023/09/05 12:27:46;;;;;;;4.32;1.30;;;16.10;43.70;;;;;;6280283;22;19999;-83
2023/09/05 12:30:32;;;;;;;3.80;1.42;;;15.90;43.70;;;;;;6280217;22;20042;-83
2023/09/05 12:33:03;;;;;;;2.75;1.20;;;15.90;43.70;;;;;;6307180;22;19999;-83
2023/09/05 12:35:31;;;;;;;9.95;1.90;;;15.90;43.60;;;;;;6307643;22;20007;-83
2023/09/05 12:38:07;;;;;;;3.40;1.20;;;15.80;44.10;;;;;;6280231;22;20031;-83
2023/09/05 12:40:34;;;;;;;3.30;1.33;;;15.80;44.20;;;;;;6306392;22;20026;-83
2023/09/05 12:43:01;;;;;;;2.88;1.13;;;15.80;44.50;;;;;;6278672;22;20002;-83
2023/09/05 12:45:29;;;;;;;4.25;1.40;;;15.70;44.30;;;;;;6280833;22;20049;-83
2023/09/05 12:47:56;;;;;;;3.50;1.40;;;15.70;44.80;;;;;;6282464;22;20186;-83
2023/09/05 12:50:32;;;;;;;3.95;1.52;;;15.70;44.70;;;;;;6256581;22;20064;-83
2023/09/05 12:53:04;;;;;;;3.28;1.38;;;15.70;44.90;;;;;;6308307;22;20430;-83
2023/09/05 12:55:32;;;;;;;3.40;1.25;;;15.70;44.80;;;;;;6309489;22;20338;-83
2023/09/05 12:58:03;;;;;;;4.57;1.38;;;15.70;45.00;;;;;;6309411;22;20003;-84
2023/09/05 13:00:34;;;;;;;3.58;1.38;;;15.70;45.10;;;;;;6281774;22;20003;-84
2023/09/05 13:03:07;;;;;;;3.28;1.40;;;15.70;45.40;;;;;;6281256;22;20006;-83
2023/09/05 13:05:34;;;;;;;5.70;1.48;;;15.70;45.90;;;;;;6282514;22;20003;-83
2023/09/05 13:08:03;;;;;;;3.22;1.40;;;15.70;46.20;;;;;;6282456;22;20064;-83
2023/09/05 13:10:30;;;;;;;2.42;1.40;;;15.70;47.00;;;;;;6282350;22;20011;-83
2023/09/05 13:12:58;;;;;;;4.75;1.77;;;15.80;46.90;;;;;;6281984;22;20330;-84
2023/09/05 13:15:25;;;;;;;5.40;1.48;;;15.80;47.30;;;;;;6281432;22;20428;-84
2023/09/05 13:17:53;;;;;;;5.00;1.40;;;15.70;47.50;;;;;;6309757;22;20047;-84
2023/09/05 13:20:20;;;;;;;4.70;1.42;;;15.70;48.00;;;;;;6308729;22;20382;-84
2023/09/05 13:22:51;;;;;;;4.65;1.25;;;15.80;47.30;;;;;;6282972;22;20410;-84
2023/09/05 13:25:18;;;;;;;3.78;1.45;;;15.70;47.40;;;;;;6309948;22;19999;-84
2023/09/05 13:27:46;;;;;;;5.07;1.63;;;15.70;47.50;;;;;;6308880;22;20022;-84
2023/09/05 13:30:14;;;;;;;4.13;1.55;;;15.70;47.70;;;;;;6281798;22;20325;-83
2023/09/05 13:32:41;;;;;;;3.03;1.48;;;15.70;47.80;;;;;;6310190;22;20086;-84
2023/09/05 13:35:09;;;;;;;3.90;1.58;;;15.60;48.60;;;;;;6308920;22;20437;-84
2023/09/05 13:37:36;;;;;;;3.75;1.52;;;15.60;48.80;;;;;;6309391;22;20007;-84
2023/09/05 13:40:04;;;;;;;1.65;1.15;;;15.50;49.00;;;;;;6282235;22;20000;-84
2023/09/05 13:42:31;;;;;;;4.85;1.63;;;15.50;49.60;;;;;;6280952;22;20326;-84
2023/09/05 13:44:59;;;;;;;5.28;1.80;;;15.40;49.50;;;;;;6309510;22;20007;-84
2023/09/05 13:47:27;;;;;;;7.55;2.53;;;15.40;51.00;;;;;;6308730;22;19999;-84
2023/09/05 13:49:55;;;;;;;6.30;1.75;;;15.30;51.40;;;;;;6309079;22;20093;-84
2023/09/05 13:52:22;;;;;;;5.03;1.60;;;15.30;49.90;;;;;;6282325;22;20100;-84
2023/09/05 13:54:49;;;;;;;6.50;1.88;;;15.30;50.70;;;;;;6280775;22;20452;-83
2023/09/05 13:57:17;;;;;;;7.53;1.58;;;15.30;50.60;;;;;;6280285;22;20053;-84
2023/09/05 13:59:44;;;;;;;5.28;1.73;;;15.30;49.90;;;;;;6280800;22;20503;-84
2023/09/05 14:02:12;;;;;;;5.70;1.60;;;15.20;49.70;;;;;;6308787;22;20000;-84
2023/09/05 14:04:39;;;;;;;3.67;1.70;;;15.20;50.00;;;;;;6281659;22;20133;-84
2023/09/05 14:07:06;;;;;;;5.25;1.90;;;15.20;50.10;;;;;;6307531;22;20057;-83
2023/09/05 14:09:36;;;;;;;13.35;1.73;;;15.10;50.20;;;;;;6307656;22;20079;-84
2023/09/05 14:12:04;;;;;;;5.50;1.70;;;15.10;50.00;;;;;;6307006;22;20073;-84
2023/09/05 14:14:31;;;;;;;9.30;1.80;;;15.10;51.00;;;;;;6304659;22;20438;-84
2023/09/05 14:16:58;;;;;;;3.85;1.67;;;15.00;50.30;;;;;;6278058;22;20009;-83
2023/09/05 14:19:26;;;;;;;6.45;1.90;;;14.90;51.20;;;;;;6304960;22;20015;-84
2023/09/05 14:21:53;;;;;;;6.47;1.60;;;14.90;51.10;;;;;;6305154;22;20523;-84
2023/09/05 14:24:20;;;;;;;8.52;1.88;;;14.80;51.10;;;;;;6304745;22;19998;-84
2023/09/05 14:26:49;;;;;;;6.68;1.55;;;14.80;50.60;;;;;;6304838;22;20307;-84
2023/09/05 14:29:16;;;;;;;4.15;1.80;;;14.70;51.50;;;;;;6305412;22;20007;-84
2023/09/05 14:31:43;;;;;;;5.88;1.98;;;14.70;51.80;;;;;;6280457;22;20011;-84
2023/09/05 14:34:11;;;;;;;4.15;1.42;;;14.60;52.00;;;;;;6307869;22;20007;-84
2023/09/05 14:36:39;;;;;;;5.53;1.98;;;14.60;51.80;;;;;;6306455;22;20007;-84
2023/09/05 14:39:07;;;;;;;5.57;1.55;;;14.60;51.80;;;;;;6279587;22;20064;-84
2023/09/05 14:41:34;;;;;;;2.97;1.27;;;14.40;53.50;;;;;;6307401;22;19999;-84
2023/09/05 14:44:02;;;;;;;5.72;2.00;;;14.40;53.10;;;;;;6307641;22;20022;-84
2023/09/05 14:46:30;;;;;;;5.95;1.80;;;14.30;53.30;;;;;;6279508;22;20053;-84
2023/09/05 14:48:58;;;;;;;5.53;1.90;;;14.30;55.50;;;;;;6254653;22;20064;-84
2023/09/05 14:51:25;;;;;;;6.93;1.67;;;14.40;51.40;;;;;;6280091;22;20045;-84
2023/09/05 14:53:52;;;;;;;7.60;1.77;;;14.50;50.40;;;;;;6280358;22;20022;-84
2023/09/05 14:56:20;;;;;;;8.00;1.75;;;14.50;51.50;;;;;;6306641;22;20034;-84
2023/09/05 14:58:47;;;;;;;7.47;1.80;;;14.50;51.80;;;;;;6307250;22;20333;-84
2023/09/05 15:01:14;;;;;;;5.30;1.55;;;14.50;51.90;;;;;;6279501;22;19999;-84
2023/09/05 15:03:42;;;;;;;6.72;1.65;;;14.60;51.00;;;;;;6280411;22;20013;-84
2023/09/05 15:06:10;;;;;;;4.00;1.60;;;14.60;50.80;;;;;;6306394;22;20457;-85
2023/09/05 15:08:37;;;;;;;4.28;1.60;;;14.60;52.40;;;;;;6306031;22;20006;-84
2023/09/05 15:11:05;;;;;;;6.18;1.70;;;14.40;53.70;;;;;;6307448;22;20018;-84
2023/09/05 15:13:32;;;;;;;4.47;1.80;;;14.30;53.80;;;;;;6199427;22;2469543;-84
2023/09/05 15:16:00;;;;;;;7.75;2.20;;;14.30;54.80;;;;;;6254396;22;20578;-85
2023/09/05 15:18:27;;;;;;;5.80;1.92;;;14.20;54.40;;;;;;6308246;22;20322;-85
2023/09/05 15:20:54;;;;;;;3.78;1.63;;;14.10;53.90;;;;;;6282771;22;20007;-84
2023/09/05 15:23:21;;;;;;;4.22;1.90;;;14.20;53.20;;;;;;6307311;22;20391;-84
2023/09/05 15:25:49;;;;;;;4.93;2.00;;;14.20;54.30;;;;;;6307545;22;20009;-83
2023/09/05 15:28:16;;;;;;;11.90;1.95;;;14.10;55.20;;;;;;6280459;22;20007;-85
2023/09/05 15:30:43;;;;;;;6.60;2.40;;;14.00;54.30;;;;;;6308198;22;20018;-84
2023/09/05 15:33:10;;;;;;;5.97;1.70;;;14.00;54.00;;;;;;6309254;22;19995;-86
2023/09/05 15:35:37;;;;;;;3.50;1.90;;;14.00;54.10;;;;;;6307946;22;20003;-84
2023/09/05 15:38:05;;;;;;;5.07;2.05;;;13.90;54.30;;;;;;6307994;22;19999;-84
2023/09/05 15:40:36;;;;;;;4.68;1.77;;;13.90;53.90;;;;;;6308878;22;20053;-85
2023/09/05 15:43:04;;;;;;;4.47;1.67;;;13.90;53.90;;;;;;6309136;22;20003;-84
2023/09/05 15:45:34;;;;;;;3.67;1.65;;;13.90;53.40;;;;;;6307710;22;20003;-84
2023/09/05 15:48:01;;;;;;;4.00;1.70;;;13.90;55.40;;;;;;6308144;22;20014;-84
2023/09/05 15:50:28;;;;;;;3.78;1.75;;;13.70;57.30;;;;;;6280371;22;20126;-84
2023/09/05 15:52:56;;;;;;;7.57;1.70;;;13.70;56.00;;;;;;6281608;22;20096;-84
2023/09/05 15:55:23;;;;;;;8.70;1.70;;;13.60;55.30;;;;;;6308011;22;20029;-84
2023/09/05 15:57:50;;;;;;;4.68;1.73;;;13.60;55.80;;;;;;6280879;22;20027;-86
2023/09/05 16:00:17;;;;;;;6.72;1.85;;;13.60;56.10;;;;;;6307533;22;19999;-84
2023/09/05 16:02:45;;;;;;;9.32;1.90;;;13.60;56.50;;;;;;6307582;22;20102;-83
2023/09/05 16:05:12;;;;;;;6.15;2.15;;;13.60;57.50;;;;;;6307410;22;20027;-84
2023/09/05 16:07:39;;;;;;;4.68;1.80;;;13.60;57.10;;;;;;6280906;22;19999;-84
2023/09/05 16:10:07;;;;;;;8.88;2.10;;;13.50;56.80;;;;;;6307518;22;20004;-84
2023/09/05 16:12:35;;;;;;;6.03;1.75;;;13.50;57.10;;;;;;6306375;22;20003;-84
2023/09/05 16:15:02;;;;;;;9.07;1.92;;;13.50;57.90;;;;;;6254310;22;20448;-84
2023/09/05 16:17:29;;;;;;;4.90;1.83;;;13.50;57.90;;;;;;6279242;22;20014;-84
2023/09/05 16:19:56;;;;;;;9.50;1.92;;;13.30;58.60;;;;;;6307487;22;20004;-84
2023/09/05 16:22:24;;;;;;;8.32;2.10;;;13.30;58.70;;;;;;6280957;22;20521;-83
2023/09/05 16:24:51;;;;;;;8.18;2.08;;;13.30;59.00;;;;;;6279930;22;20027;-84
2023/09/05 16:27:18;;;;;;;10.18;1.80;;;13.20;60.40;;;;;;6306876;22;20026;-84
2023/09/05 16:29:45;;;;;;;7.88;1.90;;;13.20;60.30;;;;;;6308999;22;20027;-86
2023/09/05 16:32:13;;;;;;;4.65;1.83;;;13.10;60.10;;;;;;6307794;22;20333;-85
2023/09/05 16:34:40;;;;;;;7.78;1.70;;;13.10;59.50;;;;;;6279704;22;20006;-85
2023/09/05 16:37:07;;;;;;;5.05;1.67;;;13.10;59.40;;;;;;6279428;22;20007;-85
2023/09/05 16:39:34;;;;;;;19.42;3.47;;;13.10;59.50;;;;;;6307691;22;20422;-86
2023/09/05 16:42:02;;;;;;;13.45;2.70;;;13.10;60.60;;;;;;6306935;22;20011;-85
2023/09/05 16:44:29;;;;;;;8.82;2.92;;;13.20;62.00;;;;;;6305881;22;20338;-84
2023/09/05 16:46:56;;;;;;;23.00;3.15;;;13.20;62.90;;;;;;6278407;22;20003;-82
2023/09/05 16:49:23;;;;;;;8.75;2.35;;;13.00;63.20;;;;;;6280127;22;20330;-84
2023/09/05 16:51:51;;;;;;;12.88;2.30;;;13.00;63.30;;;;;;6280543;22;20542;-84
2023/09/05 16:54:18;;;;;;;17.50;3.35;;;13.00;63.50;;;;;;6279842;22;20326;-84
2023/09/05 16:56:45;;;;;;;10.38;2.40;;;13.00;63.40;;;;;;6307029;22;20003;-85
2023/09/05 16:59:13;;;;;;;19.83;3.47;;;13.10;63.40;;;;;;6279308;22;20000;-84
2023/09/05 17:01:40;;;;;;;10.38;2.45;;;13.00;62.90;;;;;;6306569;22;20063;-85
2023/09/05 17:04:08;;;;;;;14.45;2.60;;;13.00;63.00;;;;;;6278901;22;20074;-84
2023/09/05 17:06:36;;;;;;;7.63;2.42;;;13.00;63.10;;;;;;6280602;22;20002;-84
2023/09/05 17:09:08;;;;;;;11.38;2.47;;;12.90;62.70;;;;;;6306805;22;20023;-84
2023/09/05 17:11:35;;;;;;;9.98;2.25;;;13.00;62.80;;;;;;6306778;22;20023;-84
2023/09/05 17:14:03;;;;;;;5.97;2.17;;;12.90;63.20;;;;;;6279258;22;20480;-84
2023/09/05 17:16:31;;;;;;;11.63;2.60;;;12.90;63.30;;;;;;6307223;22;20010;-84
2023/09/05 17:18:58;;;;;;;4.30;1.50;;;12.90;63.30;;;;;;6280667;22;19999;-84
2023/09/05 17:21:25;;;;;;;9.23;2.10;;;12.90;65.10;;;;;;6306608;22;20031;-84
2023/09/05 17:23:53;;;;;;;7.70;2.00;;;12.80;64.90;;;;;;6279534;22;20005;-85
2023/09/05 17:26:20;;;;;;;6.25;1.92;;;12.80;64.70;;;;;;6279925;22;20007;-84
2023/09/05 17:28:47;;;;;;;5.82;1.65;;;12.80;64.50;;;;;;6306707;22;20007;-85
2023/09/05 17:31:14;;;;;;;8.15;2.10;;;12.80;64.30;;;;;;6306255;22;20320;-84
2023/09/05 17:33:42;;;;;;;4.72;1.80;;;12.80;65.70;;;;;;6280366;22;20003;-84
2023/09/05 17:36:10;;;;;;;5.60;1.83;;;12.70;65.40;;;;;;6308056;22;20008;-84
2023/09/05 17:38:38;;;;;;;4.85;1.80;;;12.70;65.70;;;;;;6308552;22;21005;-84
2023/09/05 17:41:08;;;;;;;6.13;1.70;;;12.70;65.60;;;;;;6280890;22;20003;-83
2023/09/05 17:43:36;;;;;;;5.65;1.70;;;12.70;65.70;;;;;;6308347;22;20084;-84
2023/09/05 17:46:07;;;;;;;6.40;1.85;;;12.70;65.80;;;;;;6256381;22;20466;-85
2023/09/05 17:48:35;;;;;;;5.65;1.88;;;12.70;66.80;;;;;;6308175;22;19999;-84
2023/09/05 17:51:02;;;;;;;5.35;1.73;;;12.70;67.90;;;;;;6307712;22;20015;-85
2023/09/05 17:53:30;;;;;;;5.97;2.00;;;12.70;68.10;;;;;;6309216;22;19999;-85
2023/09/05 17:55:57;;;;;;;4.53;2.00;;;12.70;69.00;;;;;;6295326;22;20023;-84
2023/09/05 17:58:24;;;;;;;8.30;1.58;;;12.70;69.70;;;;;;6294102;22;20049;-85
2023/09/05 18:00:52;;;;;;;7.40;2.00;;;12.70;70.50;;;;;;6319339;22;20000;-85
2023/09/05 18:03:21;;;;;;;8.50;1.88;;;12.70;70.00;;;;;;6310947;22;20026;-84
2023/09/05 18:05:51;;;;;;;4.63;1.88;;;12.60;70.50;;;;;;6320959;22;20010;-85
2023/09/05 18:08:19;;;;;;;5.03;1.70;;;12.70;70.90;;;;;;6297369;22;20046;-85
2023/09/05 18:10:46;;;;;;;4.68;1.67;;;12.60;70.90;;;;;;6299474;22;20015;-85
2023/09/05 18:13:13;;;;;;;4.30;1.60;;;12.60;71.20;;;;;;6301833;22;20023;-85
2023/09/05 18:15:41;;;;;;;9.38;1.75;;;12.60;71.00;;;;;;6311436;22;20463;-85
2023/09/05 18:18:08;;;;;;;6.28;1.65;;;12.50;70.50;;;;;;6284730;22;20476;-84
2023/09/05 18:20:36;;;;;;;4.97;1.73;;;12.40;70.50;;;;;;6257911;22;20054;-84
2023/09/05 18:23:03;;;;;;;4.95;1.83;;;12.40;70.20;;;;;;6258043;22;20418;-84
2023/09/05 18:25:31;;;;;;;9.75;2.03;;;12.30;71.00;;;;;;6282412;22;20537;-84
2023/09/05 18:27:59;;;;;;;4.75;1.80;;;12.20;70.70;;;;;;6309036;22;20003;-85
2023/09/05 18:30:26;;;;;;;10.75;2.10;;;12.20;70.90;;;;;;6309197;22;20098;-85
2023/09/05 18:32:53;;;;;;;9.40;2.15;;;12.20;71.10;;;;;;6309358;22;20097;-84
2023/09/05 18:35:21;;;;;;;7.22;1.80;;;12.30;70.70;;;;;;6282288;22;20338;-85
2023/09/05 18:37:48;;;;;;;6.55;1.75;;;12.40;70.60;;;;;;6283495;22;19995;-85
2023/09/05 18:40:16;;;;;;;7.32;1.60;;;12.40;70.30;;;;;;6308435;22;20000;-84
2023/09/05 18:42:43;;;;;;;4.47;1.65;;;12.30;70.70;;;;;;6309532;22;20022;-81
2023/09/05 18:45:10;;;;;;;6.10;1.67;;;12.20;71.30;;;;;;6305876;22;20005;-80
2023/09/05 18:47:38;;;;;;;5.60;1.92;;;12.20;71.40;;;;;;6307477;22;19999;-80
2023/09/05 18:50:05;;;;;;;5.65;1.92;;;12.10;71.20;;;;;;6306393;22;20430;-81
2023/09/05 18:52:33;;;;;;;6.25;1.73;;;12.10;71.20;;;;;;6281092;22;20003;-81
2023/09/05 18:55:00;;;;;;;6.28;1.98;;;12.20;71.30;;;;;;6307920;22;19999;-81
2023/09/05 18:57:27;;;;;;;5.60;2.00;;;12.10;72.00;;;;;;6308176;22;20003;-80
2023/09/05 18:59:54;;;;;;;10.52;1.90;;;12.00;71.40;;;;;;6307220;22;20076;-81
2023/09/05 19:02:27;;;;;;;5.40;1.90;;;11.90;71.90;;;;;;6281564;22;20006;-81
2023/09/05 19:04:55;;;;;;;5.97;1.73;;;11.90;71.70;;;;;;6307638;22;20018;-81
2023/09/05 19:07:22;;;;;;;4.80;1.60;;;12.00;71.10;;;;;;6308525;22;19995;-81
2023/09/05 19:09:49;;;;;;;5.72;1.63;;;12.00;70.70;;;;;;6280261;22;20292;-82
2023/09/05 19:12:18;;;;;;;4.75;1.80;;;12.00;70.20;;;;;;6308591;22;20015;-87
2023/09/05 19:14:46;;;;;;;9.13;1.90;;;12.20;70.70;;;;;;6308674;22;20015;-76
2023/09/05 19:17:14;;;;;;;4.55;1.80;;;12.10;71.20;;;;;;6281089;22;20334;-80
2023/09/05 19:19:41;;;;;;;11.27;1.92;;;12.00;71.40;;;;;;6307675;22;20010;-81
2023/09/05 19:22:08;;;;;;;8.55;1.70;;;12.00;72.30;;;;;;6307352;22;19999;-80
2023/09/05 19:24:36;;;;;;;7.05;1.80;;;12.00;71.90;;;;;;6306858;22;20086;-80
2023/09/05 19:27:03;;;;;;;5.55;1.25;;;11.90;71.40;;;;;;6308155;22;20039;-80
2023/09/05 19:29:30;;;;;;;9.18;1.85;;;11.90;71.20;;;;;;6280700;22;20386;-79
2023/09/05 19:31:57;;;;;;;3.47;1.40;;;12.00;71.50;;;;;;6307017;22;20082;-79
2023/09/05 19:34:24;;;;;;;3.60;1.40;;;12.00;71.50;;;;;;6305958;22;20007;-79
2023/09/05 19:36:52;;;;;;;16.63;1.95;;;11.90;71.80;;;;;;6307103;22;20050;-79
2023/09/05 19:39:25;;;;;;;8.10;1.80;;;11.90;72.00;;;;;;6280039;22;19996;-79
2023/09/05 19:41:53;;;;;;;9.50;1.80;;;11.90;72.20;;;;;;6279640;22;19999;-79
2023/09/05 19:44:20;;;;;;;4.13;1.70;;;11.90;73.20;;;;;;6306425;22;20026;-79
2023/09/05 19:46:47;;;;;;;7.18;1.70;;;12.00;73.90;;;;;;6306755;22;20062;-79
2023/09/05 19:49:14;;;;;;;5.65;1.88;;;11.90;74.30;;;;;;6307132;22;20101;-79
2023/09/05 19:51:41;;;;;;;8.63;1.60;;;11.80;73.40;;;;;;6307142;22;20011;-79
2023/09/05 19:54:09;;;;;;;6.47;1.70;;;11.80;73.10;;;;;;6279349;22;20003;-79
2023/09/05 19:56:36;;;;;;;6.20;1.92;;;11.70;73.50;;;;;;6306811;22;20014;-79
2023/09/05 19:59:03;;;;;;;6.03;1.70;;;11.70;73.50;;;;;;6279925;22;20328;-79
2023/09/05 20:01:33;;;;;;;8.43;1.77;;;11.80;73.60;;;;;;6306988;22;20015;-79
2023/09/05 20:04:00;;;;;;;3.53;1.70;;;11.80;73.70;;;;;;6306588;22;20026;-79
2023/09/05 20:06:27;;;;;;;6.22;1.83;;;11.90;73.70;;;;;;6280760;22;19999;-79
2023/09/05 20:08:54;;;;;;;4.35;1.60;;;11.80;74.10;;;;;;6307912;22;19999;-79
2023/09/05 20:11:22;;;;;;;3.22;1.23;;;11.80;74.20;;;;;;6307734;22;20042;-79
2023/09/05 20:13:49;;;;;;;6.30;1.90;;;11.80;74.10;;;;;;6305318;22;20011;-79
2023/09/05 20:16:16;;;;;;;4.40;1.90;;;11.80;74.20;;;;;;6305658;22;20030;-79
2023/09/05 20:18:43;;;;;;;5.13;1.70;;;11.70;74.80;;;;;;6306722;22;20006;-79
2023/09/05 20:21:14;;;;;;;4.82;1.55;;;11.70;75.10;;;;;;6307184;22;20338;-79
2023/09/05 20:23:41;;;;;;;4.30;1.38;;;11.70;75.10;;;;;;6306838;22;19999;-79
2023/09/05 20:26:08;;;;;;;3.35;1.60;;;11.70;75.20;;;;;;6306636;22;20307;-79
2023/09/05 20:28:36;;;;;;;4.90;1.73;;;11.70;75.20;;;;;;6307003;22;20000;-79
2023/09/05 20:31:03;;;;;;;8.68;2.03;;;11.70;75.50;;;;;;6306954;22;20342;-79
2023/09/05 20:33:30;;;;;;;6.43;2.00;;;11.70;75.50;;;;;;6306765;22;20003;-79
2023/09/05 20:36:07;;;;;;;6.72;2.28;;;11.70;75.40;;;;;;6280242;22;20430;-78
2023/09/05 20:38:35;;;;;;;5.03;1.88;;;11.70;75.40;;;;;;6280249;22;20591;-78
2023/09/05 20:41:02;;;;;;;8.98;1.80;;;11.70;75.70;;;;;;6279767;22;20381;-78
2023/09/05 20:43:31;;;;;;;6.97;1.90;;;11.80;75.80;;;;;;6307124;22;20010;-78
2023/09/05 20:45:59;;;;;;;4.97;1.50;;;11.90;76.20;;;;;;6280322;22;20445;-79
2023/09/05 20:48:26;;;;;;;5.28;1.73;;;11.90;76.20;;;;;;6280189;22;19996;-78
2023/09/05 20:50:56;;;;;;;3.97;1.70;;;12.00;76.00;;;;;;6307390;22;20090;-78
2023/09/05 20:53:23;;;;;;;3.97;1.88;;;12.00;76.70;;;;;;6307165;22;20078;-78
2023/09/05 20:55:51;;;;;;;3.95;1.98;;;12.00;76.50;;;;;;6306163;22;19999;-79
2023/09/05 20:58:18;;;;;;;8.80;2.08;;;12.00;76.30;;;;;;6279217;22;20078;-78
2023/09/05 21:00:46;;;;;;;5.68;2.00;;;12.00;76.10;;;;;;6305987;22;20003;-78
2023/09/05 21:03:13;;;;;;;4.32;1.95;;;12.10;75.70;;;;;;6280142;22;20427;-79
2023/09/05 21:05:40;;;;;;;11.18;2.42;;;12.10;75.50;;;;;;6306400;22;20053;-79
2023/09/05 21:08:07;;;;;;;7.75;2.08;;;12.20;76.10;;;;;;6308234;22;20003;-78
2023/09/05 21:10:36;;;;;;;13.88;2.25;;;12.20;76.00;;;;;;6281331;22;20129;-78
2023/09/05 21:13:03;;;;;;;11.30;2.45;;;12.30;75.70;;;;;;6275907;22;20022;-78
2023/09/05 21:15:31;;;;;;;9.52;2.15;;;12.30;75.10;;;;;;6277388;22;19999;-78
2023/09/05 21:17:58;;;;;;;6.95;1.90;;;12.50;74.40;;;;;;6250133;22;20022;-78
2023/09/05 21:20:25;;;;;;;7.85;2.45;;;12.60;73.60;;;;;;6276466;22;20090;-80
2023/09/05 21:22:52;;;;;;;9.48;2.53;;;12.70;73.00;;;;;;6277226;22;20507;-82
2023/09/05 21:25:19;;;;;;;10.20;2.30;;;12.70;72.30;;;;;;6276874;22;20072;-81
2023/09/05 21:27:46;;;;;;;11.82;2.47;;;12.80;72.00;;;;;;6274285;22;20000;-76
2023/09/05 21:30:14;;;;;;;10.27;2.40;;;12.90;70.70;;;;;;6276465;22;20000;-75
2023/09/05 21:32:41;;;;;;;11.40;3.25;;;13.00;70.80;;;;;;6276858;22;20004;-76
2023/09/05 21:35:08;;;;;;;18.35;2.53;;;13.10;70.30;;;;;;6276461;22;20011;-76
2023/09/05 21:37:36;;;;;;;16.85;2.60;;;13.20;70.30;;;;;;6276471;22;20011;-76
2023/09/05 21:40:04;;;;;;;14.30;2.38;;;13.30;70.20;;;;;;6277080;22;20279;-76
2023/09/05 21:42:31;;;;;;;10.07;2.30;;;13.30;69.90;;;;;;6275653;22;20004;-76
2023/09/05 21:44:59;;;;;;;10.15;2.45;;;13.40;69.50;;;;;;6276711;22;20014;-76
2023/09/05 21:47:26;;;;;;;10.68;2.08;;;13.40;69.60;;;;;;6277300;22;20023;-76
2023/09/05 21:49:54;;;;;;;9.82;2.55;;;13.50;68.80;;;;;;6276791;22;20000;-75
2023/09/05 21:52:23;;;;;;;9.30;2.40;;;13.60;68.30;;;;;;6276390;22;20033;-75
2023/09/05 21:54:50;;;;;;;5.82;1.75;;;13.70;67.60;;;;;;6274577;22;20026;-76
2023/09/05 21:57:17;;;;;;;8.88;1.60;;;13.70;67.50;;;;;;6275597;22;20010;-75
2023/09/05 21:59:45;;;;;;;7.68;2.03;;;13.70;66.60;;;;;;6275692;22;20376;-76
2023/09/05 22:02:12;;;;;;;5.43;1.95;;;13.80;65.90;;;;;;6274633;22;20060;-75
2023/09/05 22:04:40;;;;;;;5.70;1.70;;;13.80;66.00;;;;;;6276379;22;20329;-75
2023/09/05 22:07:07;;;;;;;6.13;1.90;;;13.90;65.40;;;;;;6276681;22;20011;-75
2023/09/05 22:09:34;;;;;;;5.22;1.98;;;14.00;65.50;;;;;;6276485;22;20000;-75
2023/09/05 22:12:03;;;;;;;3.45;1.50;;;14.00;65.20;;;;;;6277091;22;20015;-75
2023/09/05 22:14:31;;;;;;;5.95;1.73;;;14.10;64.40;;;;;;6301374;22;20022;-75
2023/09/05 22:16:59;;;;;;;6.03;1.77;;;14.10;64.20;;;;;;6306698;22;20008;-76
2023/09/05 22:19:31;;;;;;;5.05;1.67;;;14.20;63.80;;;;;;6308096;22;20076;-76
2023/09/05 22:21:58;;;;;;;9.85;1.92;;;14.20;63.30;;;;;;6308048;22;19999;-76
2023/09/05 22:24:26;;;;;;;5.72;1.70;;;14.30;61.70;;;;;;6280887;22;20006;-76
2023/09/05 22:26:54;;;;;;;6.38;1.80;;;14.30;60.90;;;;;;6307793;22;20006;-76
2023/09/05 22:29:22;;;;;;;4.93;1.73;;;14.40;60.30;;;;;;6278791;22;20465;-76
2023/09/05 22:31:50;;;;;;;8.00;1.80;;;14.40;60.20;;;;;;6280281;22;20416;-76
2023/09/05 22:34:17;;;;;;;19.23;3.60;;;14.50;59.80;;;;;;6280127;22;19999;-75
2023/09/05 22:36:44;;;;;;;13.57;3.25;;;14.60;60.40;;;;;;6307513;22;20003;-75
2023/09/05 22:39:11;;;;;;;9.45;2.25;;;14.60;60.40;;;;;;6307797;22;20070;-76
2023/09/05 22:41:39;;;;;;;15.60;2.65;;;14.70;60.60;;;;;;6307172;22;20000;-75
2023/09/05 22:44:07;;;;;;;9.63;2.40;;;14.70;60.70;;;;;;6307645;22;20418;-75
2023/09/05 22:46:34;;;;;;;9.25;2.25;;;14.80;61.20;;;;;;6307420;22;20177;-76
2023/09/05 22:49:01;;;;;;;7.07;2.40;;;14.90;60.50;;;;;;6307118;22;20011;-76
2023/09/05 22:51:28;;;;;;;8.77;2.38;;;15.00;61.50;;;;;;6307162;22;20007;-76
2023/09/05 22:53:55;;;;;;;7.13;2.40;;;15.00;62.00;;;;;;6306855;22;20074;-75
2023/09/05 22:56:23;;;;;;;10.05;2.90;;;15.10;61.30;;;;;;6280678;22;20070;-75
2023/09/05 22:58:53;;;;;;;13.63;2.72;;;15.20;60.60;;;;;;6279878;22;20033;-75
2023/09/05 23:01:21;;;;;;;9.38;3.45;;;15.20;60.70;;;;;;6279539;22;20094;-75
2023/09/05 23:03:48;;;;;;;10.05;2.58;;;15.30;60.90;;;;;;6280228;22;20000;-76
2023/09/05 23:06:15;;;;;;;7.55;2.45;;;15.30;60.20;;;;;;6307258;22;20011;-74
2023/09/05 23:08:42;;;;;;;14.80;2.67;;;15.40;60.30;;;;;;6307094;22;20007;-74
2023/09/05 23:11:10;;;;;;;9.35;2.83;;;15.40;59.60;;;;;;6307013;22;20034;-75
2023/09/05 23:13:37;;;;;;;6.75;1.90;;;15.50;58.40;;;;;;6306821;22;20042;-74
2023/09/05 23:16:04;;;;;;;11.02;2.50;;;15.60;57.60;;;;;;6307193;22;20030;-75
2023/09/05 23:18:36;;;;;;;6.03;2.25;;;15.70;58.50;;;;;;6306963;22;20006;-75
2023/09/05 23:21:04;;;;;;;6.25;1.90;;;15.70;56.60;;;;;;6307029;22;20068;-75
2023/09/05 23:23:31;;;;;;;11.77;1.70;;;15.70;56.60;;;;;;6307013;22;20429;-75
2023/09/05 23:25:59;;;;;;;7.97;1.90;;;15.70;57.20;;;;;;6306811;22;20029;-75
2023/09/05 23:28:27;;;;;;;5.57;1.67;;;15.80;54.60;;;;;;6306806;22;20074;-75
2023/09/05 23:30:54;;;;;;;9.77;1.77;;;15.90;54.30;;;;;;6306291;22;20042;-76
2023/09/05 23:33:21;;;;;;;10.27;2.10;;;16.00;55.20;;;;;;6306908;22;20367;-75
2023/09/05 23:35:50;;;;;;;8.20;2.00;;;16.10;55.90;;;;;;6306978;22;20010;-75
2023/09/05 23:38:20;;;;;;;10.10;2.08;;;16.10;55.40;;;;;;6279197;22;20338;-75
2023/09/05 23:40:47;;;;;;;12.73;2.40;;;16.20;55.30;;;;;;6279389;22;20003;-75
2023/09/05 23:43:17;;;;;;;8.65;2.58;;;16.20;55.30;;;;;;6307052;22;19996;-75
2023/09/05 23:45:52;;;;;;;8.60;1.80;;;16.30;54.50;;;;;;6306764;22;20007;-75
2023/09/05 23:48:22;;;;;;;8.73;1.88;;;16.40;54.70;;;;;;6229313;22;20000;-75
2023/09/05 23:50:50;;;;;;;12.70;2.00;;;16.50;55.00;;;;;;6306340;22;20431;-75
2023/09/05 23:53:17;;;;;;;9.18;1.60;;;16.50;55.20;;;;;;6279764;22;20006;-75
2023/09/05 23:55:44;;;;;;;13.80;2.20;;;16.50;56.70;;;;;;6306772;22;20022;-75
2023/09/05 23:58:15;;;;;;;7.72;1.88;;;16.60;56.00;;;;;;6254452;22;20507;-75
